Time;durP1;ratioP1;P1;durP2;ratioP2;P2;SDS_P1;SDS_P2;PMS_P1;PMS_P2;Temp;Humidity;BMP_temperature;BMP_pressure;BME280_temperature;BME280_humidity;BME280_pressure;Samples;Min_cycle;Max_cycle;Signal;HPM_P1;HPM_P2
2023/08/19 00:01:39;;;;;;;16.70;15.20;;;23.00;99.90;;;;;;5074211;28;20429;-78
2023/08/19 00:04:11;;;;;;;14.20;13.00;;;22.90;99.90;;;;;;5076909;28;20947;-78
2023/08/19 00:06:41;;;;;;;18.23;16.73;;;23.00;99.90;;;;;;5084253;28;20430;-76
2023/08/19 00:09:09;;;;;;;17.20;15.50;;;23.00;99.90;;;;;;5078201;28;20874;-80
2023/08/19 00:11:41;;;;;;;15.20;13.90;;;23.00;99.90;;;;;;5088161;28;20491;-80
2023/08/19 00:14:13;;;;;;;16.73;15.10;;;23.00;99.90;;;;;;5084750;28;20467;-81
2023/08/19 00:16:48;;;;;;;17.10;15.60;;;23.00;99.90;;;;;;5075100;28;20457;-80
2023/08/19 00:19:17;;;;;;;17.70;15.90;;;23.00;99.90;;;;;;5084601;28;20479;-79
2023/08/19 00:21:48;;;;;;;17.83;16.23;;;23.00;99.90;;;;;;5071141;28;20521;-79
2023/08/19 00:24:18;;;;;;;17.77;16.07;;;23.00;99.90;;;;;;5082075;28;20503;-80
2023/08/19 00:26:46;;;;;;;15.80;14.57;;;23.00;99.90;;;;;;5084762;28;20462;-78
2023/08/19 00:29:14;;;;;;;16.87;15.47;;;23.00;99.90;;;;;;5087150;28;20479;-78
2023/08/19 00:31:42;;;;;;;17.27;15.83;;;23.00;99.90;;;;;;5077069;28;20481;-78
2023/08/19 00:34:11;;;;;;;17.73;16.23;;;23.00;99.90;;;;;;5088937;28;20468;-80
2023/08/19 00:36:42;;;;;;;15.37;13.97;;;23.00;99.90;;;;;;5078119;28;20437;-80
2023/08/19 00:39:12;;;;;;;16.90;15.40;;;23.00;99.90;;;;;;5074498;28;20526;-80
2023/08/19 00:41:39;;;;;;;16.67;15.17;;;23.00;99.90;;;;;;5084427;28;20465;-80
2023/08/19 00:44:10;;;;;;;16.53;15.20;;;23.00;99.90;;;;;;5083104;28;20971;-80
2023/08/19 00:46:38;;;;;;;19.43;17.70;;;23.10;99.90;;;;;;5082864;28;20774;-78
2023/08/19 00:49:06;;;;;;;18.43;16.83;;;23.10;99.90;;;;;;5085337;28;20594;-76
2023/08/19 00:51:35;;;;;;;17.70;16.13;;;23.10;99.90;;;;;;5079314;28;20551;-80
2023/08/19 00:54:04;;;;;;;18.87;17.20;;;23.10;99.90;;;;;;5084233;28;20461;-78
2023/08/19 00:56:37;;;;;;;17.97;16.57;;;23.10;99.90;;;;;;5082157;28;20448;-77
2023/08/19 00:59:05;;;;;;;18.53;16.83;;;23.10;99.90;;;;;;5081764;28;20931;-77
2023/08/19 01:01:37;;;;;;;18.30;16.70;;;23.20;99.90;;;;;;5087496;28;20448;-77
2023/08/19 01:04:06;;;;;;;19.93;17.93;;;23.20;99.90;;;;;;5077918;28;20464;-77
2023/08/19 01:06:46;;;;;;;18.20;16.63;;;23.20;99.90;;;;;;5083232;28;20455;-78
2023/08/19 01:09:29;;;;;;;19.87;18.17;;;23.20;99.90;;;;;;5071569;28;20806;-79
2023/08/19 01:12:07;;;;;;;21.37;19.43;;;23.20;99.90;;;;;;5060154;28;20443;-77
2023/08/19 01:14:42;;;;;;;20.70;18.83;;;23.20;99.90;;;;;;5063871;28;20472;-77
2023/08/19 01:17:14;;;;;;;20.30;18.50;;;23.20;99.90;;;;;;5072986;28;20950;-80
2023/08/19 01:19:46;;;;;;;22.00;20.00;;;23.20;99.90;;;;;;5081759;28;20437;-77
2023/08/19 01:22:18;;;;;;;22.43;20.20;;;23.20;99.90;;;;;;5089488;28;20485;-79
2023/08/19 01:24:49;;;;;;;21.07;18.87;;;23.10;99.90;;;;;;5077141;28;20464;-80
2023/08/19 01:27:27;;;;;;;21.67;19.67;;;23.10;99.90;;;;;;5090848;28;20486;-79
2023/08/19 01:29:56;;;;;;;20.70;18.70;;;23.10;99.90;;;;;;5069173;28;20552;-77
2023/08/19 01:32:28;;;;;;;19.83;17.87;;;23.10;99.90;;;;;;5087867;28;20487;-81
2023/08/19 01:34:59;;;;;;;22.80;20.67;;;23.20;99.90;;;;;;5079593;28;20477;-80
2023/08/19 01:37:33;;;;;;;23.63;21.37;;;23.10;99.90;;;;;;5087812;28;20799;-79
2023/08/19 01:40:03;;;;;;;21.13;19.00;;;23.10;99.90;;;;;;5076234;28;20444;-80
2023/08/19 01:42:33;;;;;;;24.73;22.30;;;23.10;99.90;;;;;;5085717;28;20476;-78
2023/08/19 01:45:07;;;;;;;21.73;19.83;;;23.10;99.90;;;;;;5077865;28;20473;-79
2023/08/19 01:47:39;;;;;;;19.77;18.00;;;23.10;99.90;;;;;;5088692;28;20483;-78
2023/08/19 01:50:08;;;;;;;23.53;21.43;;;23.10;99.90;;;;;;5076553;28;20538;-76
2023/08/19 01:52:36;;;;;;;20.20;18.40;;;23.00;99.90;;;;;;5075959;28;20440;-82
2023/08/19 01:55:06;;;;;;;21.70;19.80;;;23.00;99.90;;;;;;5080107;28;20462;-80
2023/08/19 01:57:36;;;;;;;21.57;19.47;;;23.00;99.90;;;;;;5072317;28;20442;-82
2023/08/19 02:00:05;;;;;;;22.43;20.37;;;23.00;99.90;;;;;;5073926;28;20437;-81
2023/08/19 02:02:35;;;;;;;23.33;21.23;;;23.00;99.90;;;;;;5075680;28;20441;-79
2023/08/19 02:05:05;;;;;;;22.90;20.87;;;23.00;99.90;;;;;;5084908;28;20464;-79
2023/08/19 02:07:33;;;;;;;26.17;20.63;;;22.90;99.90;;;;;;5077684;28;20464;-80
2023/08/19 02:10:07;;;;;;;24.37;22.00;;;23.00;99.90;;;;;;5071479;28;20596;-79
2023/08/19 02:12:37;;;;;;;23.43;21.10;;;22.90;99.90;;;;;;5060441;28;20461;-80
2023/08/19 02:15:09;;;;;;;22.47;20.47;;;22.90;99.90;;;;;;5070676;28;20449;-79
2023/08/19 02:17:37;;;;;;;22.20;20.30;;;22.90;99.90;;;;;;5086081;28;20436;-79
2023/08/19 02:20:05;;;;;;;22.80;20.77;;;22.90;99.90;;;;;;5075922;28;20441;-80
2023/08/19 02:22:33;;;;;;;23.60;21.60;;;22.80;99.90;;;;;;5086173;28;20436;-80
2023/08/19 02:25:01;;;;;;;23.23;21.00;;;22.90;99.90;;;;;;5077170;28;20531;-80
2023/08/19 02:27:35;;;;;;;24.63;22.53;;;22.80;99.90;;;;;;5075200;28;20833;-78
2023/08/19 02:30:03;;;;;;;24.77;22.37;;;22.70;99.90;;;;;;5068602;28;20453;-80
2023/08/19 02:32:36;;;;;;;28.10;24.93;;;22.70;99.90;;;;;;5078862;28;20437;-79
2023/08/19 02:35:04;;;;;;;27.00;24.20;;;22.70;99.90;;;;;;5088102;28;20453;-79
2023/08/19 02:37:32;;;;;;;27.40;24.40;;;22.70;99.90;;;;;;5068022;28;20442;-78
2023/08/19 02:39:59;;;;;;;25.70;23.30;;;22.70;99.90;;;;;;5077352;28;20450;-76
2023/08/19 02:42:29;;;;;;;24.63;22.40;;;22.60;99.90;;;;;;5064806;28;20465;-77
2023/08/19 02:44:59;;;;;;;27.60;24.73;;;22.60;99.90;;;;;;5078748;28;20515;-77
2023/08/19 02:47:28;;;;;;;25.53;23.27;;;22.60;99.90;;;;;;5089064;28;20448;-78
2023/08/19 02:49:56;;;;;;;26.70;24.20;;;22.70;99.90;;;;;;5073593;28;20524;-79
2023/08/19 02:52:24;;;;;;;26.93;24.63;;;22.60;99.90;;;;;;5079573;28;20538;-80
2023/08/19 02:54:53;;;;;;;29.27;26.37;;;22.60;99.90;;;;;;5085929;28;20547;-78
2023/08/19 02:57:21;;;;;;;26.97;24.40;;;22.60;99.90;;;;;;5072563;28;20459;-81
2023/08/19 02:59:48;;;;;;;26.97;24.40;;;22.50;99.90;;;;;;5083728;28;20485;-77
2023/08/19 03:02:24;;;;;;;26.43;24.07;;;22.50;99.90;;;;;;5085752;28;20972;-78
2023/08/19 03:04:52;;;;;;;27.13;24.73;;;22.50;99.90;;;;;;5071360;28;20494;-77
2023/08/19 03:07:20;;;;;;;27.03;24.33;;;22.50;99.90;;;;;;5081548;28;20477;-80
2023/08/19 03:09:48;;;;;;;30.27;27.07;;;22.50;99.90;;;;;;5080059;28;20442;-78
2023/08/19 03:12:18;;;;;;;28.80;26.00;;;22.40;99.90;;;;;;5088804;28;20476;-80
2023/08/19 03:14:46;;;;;;;27.50;24.90;;;22.40;99.90;;;;;;5079452;28;20808;-79
2023/08/19 03:17:21;;;;;;;29.90;27.17;;;22.40;99.90;;;;;;5088665;28;20497;-79
2023/08/19 03:19:48;;;;;;;28.83;26.17;;;22.40;99.90;;;;;;5079202;28;20440;-78
2023/08/19 03:22:21;;;;;;;28.13;25.60;;;22.40;99.90;;;;;;5080138;28;20527;-80
2023/08/19 03:24:49;;;;;;;31.53;28.50;;;22.30;99.90;;;;;;5079425;28;20467;-80
2023/08/19 03:27:29;;;;;;;28.87;26.30;;;22.30;99.90;;;;;;5083919;28;20433;-80
2023/08/19 03:29:57;;;;;;;30.10;26.93;;;22.30;99.90;;;;;;5071429;28;20930;-78
2023/08/19 03:32:29;;;;;;;30.33;27.53;;;22.20;99.90;;;;;;5083049;28;20482;-79
2023/08/19 03:35:02;;;;;;;30.93;28.03;;;22.30;99.90;;;;;;5081208;28;20472;-78
2023/08/19 03:37:32;;;;;;;32.40;29.20;;;22.20;99.90;;;;;;5089104;28;20448;-78
2023/08/19 03:39:59;;;;;;;28.10;25.37;;;22.30;99.90;;;;;;5084288;28;20510;-78
2023/08/19 03:42:55;;;;;;;29.77;26.83;;;22.20;99.90;;;;;;5076001;28;20514;-80
2023/08/19 03:45:41;;;;;;;30.77;27.87;;;22.10;99.90;;;;;;5078156;28;20443;-77
2023/08/19 03:48:15;;;;;;;29.10;26.20;;;22.10;99.90;;;;;;5083847;28;20439;-80
2023/08/19 03:50:43;;;;;;;28.20;25.60;;;22.10;99.90;;;;;;5046492;28;20480;-79
2023/08/19 03:53:10;;;;;;;30.20;27.20;;;22.10;99.90;;;;;;5074529;28;20464;-81
2023/08/19 03:55:38;;;;;;;30.73;27.70;;;22.10;99.90;;;;;;5082131;28;20446;-78
2023/08/19 03:58:06;;;;;;;32.83;29.57;;;22.00;99.90;;;;;;5084184;28;20445;-78
2023/08/19 04:00:39;;;;;;;33.30;30.07;;;22.00;99.90;;;;;;5072167;28;20511;-77
2023/08/19 04:03:08;;;;;;;29.40;26.40;;;22.00;99.90;;;;;;5081886;28;20457;-78
2023/08/19 04:05:38;;;;;;;32.70;29.57;;;22.00;99.90;;;;;;5082006;28;20424;-79
2023/08/19 04:08:09;;;;;;;31.50;28.30;;;21.90;99.90;;;;;;5081725;28;20468;-77
2023/08/19 04:10:39;;;;;;;33.07;30.07;;;21.90;99.90;;;;;;5084442;28;20907;-77
2023/08/19 04:13:07;;;;;;;32.97;29.97;;;21.90;99.90;;;;;;5077416;28;21175;-78
2023/08/19 04:15:37;;;;;;;30.20;27.47;;;21.90;99.90;;;;;;5079331;28;20859;-80
2023/08/19 04:18:10;;;;;;;31.73;28.43;;;21.90;99.90;;;;;;5079841;28;20839;-79
2023/08/19 04:20:40;;;;;;;31.73;28.50;;;21.90;99.90;;;;;;5083355;28;20487;-80
2023/08/19 04:23:08;;;;;;;31.53;28.40;;;21.90;99.90;;;;;;5079140;28;20517;-77
2023/08/19 04:25:35;;;;;;;32.27;28.97;;;21.90;99.90;;;;;;5069275;28;20492;-79
2023/08/19 04:28:06;;;;;;;33.63;30.53;;;21.90;99.90;;;;;;5075772;28;20456;-80
2023/08/19 04:30:36;;;;;;;35.97;32.27;;;21.90;99.90;;;;;;5080068;28;20568;-78
2023/08/19 04:33:05;;;;;;;34.03;30.70;;;21.90;99.90;;;;;;5088263;28;20450;-79
2023/08/19 04:35:33;;;;;;;32.47;29.17;;;22.00;99.90;;;;;;5079734;28;20454;-78
2023/08/19 04:38:03;;;;;;;33.33;30.03;;;22.00;99.90;;;;;;5061929;28;20476;-79
2023/08/19 04:40:30;;;;;;;31.93;28.80;;;22.00;99.90;;;;;;5081156;28;20495;-78
2023/08/19 04:42:58;;;;;;;31.40;28.47;;;22.10;99.90;;;;;;5077860;28;20899;-79
2023/08/19 04:45:26;;;;;;;30.90;28.10;;;22.10;99.90;;;;;;5087316;28;20436;-81
2023/08/19 04:47:56;;;;;;;32.60;29.60;;;22.20;99.90;;;;;;5078682;28;20442;-78
2023/08/19 04:50:27;;;;;;;30.20;27.30;;;22.20;99.90;;;;;;5084015;28;20984;-79
2023/08/19 04:52:58;;;;;;;30.00;27.10;;;22.30;99.90;;;;;;5082934;28;20511;-78
2023/08/19 04:55:29;;;;;;;30.60;27.70;;;22.40;99.90;;;;;;5084184;28;20450;-81
2023/08/19 04:57:57;;;;;;;31.17;28.20;;;22.50;99.90;;;;;;5083488;28;20438;-78
2023/08/19 05:00:24;;;;;;;30.90;27.90;;;22.50;99.90;;;;;;5065385;28;20441;-78
2023/08/19 05:02:55;;;;;;;28.83;26.13;;;22.60;99.90;;;;;;5068458;28;20453;-80
2023/08/19 05:05:26;;;;;;;28.40;25.67;;;22.70;99.90;;;;;;5070393;28;20445;-77
2023/08/19 05:07:53;;;;;;;29.83;27.03;;;22.80;99.90;;;;;;5071651;28;20460;-79
2023/08/19 05:10:23;;;;;;;30.93;28.10;;;22.90;99.90;;;;;;5079013;28;20441;-77
2023/08/19 05:12:54;;;;;;;32.10;28.90;;;22.90;99.90;;;;;;5081619;28;20495;-80
2023/08/19 05:15:26;;;;;;;29.10;26.30;;;23.10;99.90;;;;;;5079307;28;20457;-79
2023/08/19 05:17:54;;;;;;;26.63;24.23;;;23.60;99.90;;;;;;5063063;28;20588;-78
2023/08/19 05:20:22;;;;;;;28.60;25.70;;;24.30;99.90;;;;;;5082391;28;20482;-80
2023/08/19 05:22:50;;;;;;;24.23;22.13;;;24.80;99.90;;;;;;5071985;28;20442;-79
2023/08/19 05:25:18;;;;;;;26.27;24.03;;;25.30;99.90;;;;;;5087441;28;20893;-79
2023/08/19 05:27:46;;;;;;;24.20;22.10;;;25.80;99.90;;;;;;5079775;28;20528;-79
2023/08/19 05:30:16;;;;;;;21.67;19.73;;;26.40;99.90;;;;;;5087836;28;20420;-78
2023/08/19 05:32:45;;;;;;;23.47;21.27;;;27.10;99.90;;;;;;5075127;28;20513;-80
2023/08/19 05:35:21;;;;;;;23.60;21.30;;;27.70;99.90;;;;;;5081237;28;20495;-77
2023/08/19 05:37:49;;;;;;;22.83;20.43;;;28.20;99.90;;;;;;5079021;28;20788;-78
2023/08/19 05:40:25;;;;;;;22.27;20.37;;;28.40;99.90;;;;;;5082374;28;20838;-77
2023/08/19 05:42:53;;;;;;;21.23;19.23;;;29.00;99.90;;;;;;5071997;28;20445;-79
2023/08/19 05:45:28;;;;;;;21.90;19.77;;;29.70;99.90;;;;;;5069346;28;20441;-78
2023/08/19 05:48:05;;;;;;;20.50;18.80;;;30.00;99.90;;;;;;5079833;28;20763;-76
2023/08/19 05:50:33;;;;;;;23.00;20.90;;;30.60;99.90;;;;;;5077905;28;20451;-78
2023/08/19 05:53:06;;;;;;;21.10;19.00;;;30.80;99.90;;;;;;5078994;28;20850;-79
2023/08/19 05:55:45;;;;;;;19.87;17.97;;;31.00;99.90;;;;;;5070875;28;20502;-78
2023/08/19 05:58:15;;;;;;;19.40;17.60;;;31.40;99.90;;;;;;5081503;28;20536;-79
2023/08/19 06:00:49;;;;;;;21.00;19.10;;;31.80;99.90;;;;;;5077986;28;20445;-79
2023/08/19 06:03:17;;;;;;;19.87;18.27;;;31.80;99.50;;;;;;5089930;28;20487;-77
2023/08/19 06:05:46;;;;;;;19.43;17.73;;;31.50;99.90;;;;;;5076633;28;20458;-77
2023/08/19 06:08:14;;;;;;;24.30;22.20;;;31.10;99.90;;;;;;5071451;28;20461;-78
2023/08/19 06:10:44;;;;;;;21.10;19.10;;;31.10;99.90;;;;;;5069242;28;20936;-76
2023/08/19 06:13:13;;;;;;;21.03;18.93;;;31.30;99.90;;;;;;5069744;28;20514;-80
2023/08/19 06:15:41;;;;;;;22.73;20.43;;;31.30;99.60;;;;;;5068061;28;20445;-79
2023/08/19 06:18:14;;;;;;;21.87;19.77;;;31.10;99.70;;;;;;5082018;28;20879;-77
2023/08/19 06:20:46;;;;;;;22.63;20.43;;;31.40;99.40;;;;;;5078508;28;20452;-79
2023/08/19 06:23:14;;;;;;;20.50;18.60;;;31.50;98.50;;;;;;5078973;28;20489;-77
2023/08/19 06:25:44;;;;;;;23.07;20.97;;;31.00;99.20;;;;;;5082548;28;20918;-77
2023/08/19 06:28:14;;;;;;;22.10;19.83;;;30.40;99.90;;;;;;5075736;28;20930;-76
2023/08/19 06:30:49;;;;;;;23.00;21.00;;;29.50;99.90;;;;;;5077094;28;20448;-77
2023/08/19 06:33:22;;;;;;;23.27;21.17;;;29.40;99.90;;;;;;5077812;28;20455;-77
2023/08/19 06:35:51;;;;;;;20.97;19.17;;;29.40;99.90;;;;;;5080378;28;20497;-77
2023/08/19 06:38:23;;;;;;;22.47;20.47;;;28.80;99.90;;;;;;5074649;28;20863;-75
2023/08/19 06:40:57;;;;;;;22.73;20.70;;;28.30;99.90;;;;;;5077606;28;20440;-77
2023/08/19 06:43:28;;;;;;;22.50;20.47;;;28.50;99.90;;;;;;5076612;28;20564;-76
2023/08/19 06:45:57;;;;;;;20.27;18.43;;;29.10;99.90;;;;;;5084196;28;20459;-80
2023/08/19 06:48:26;;;;;;;23.43;21.37;;;29.30;99.90;;;;;;5075898;28;20972;-78
2023/08/19 06:50:55;;;;;;;22.80;20.70;;;30.00;99.90;;;;;;5076403;28;20445;-78
2023/08/19 06:53:23;;;;;;;22.57;20.50;;;30.60;99.90;;;;;;5076692;28;20512;-78
2023/08/19 06:56:08;;;;;;;19.80;18.20;;;31.40;99.70;;;;;;5060081;28;20473;-78
2023/08/19 06:58:41;;;;;;;22.03;20.13;;;32.10;97.70;;;;;;5077793;28;20438;-78
2023/08/19 07:01:15;;;;;;;19.70;18.07;;;32.70;96.00;;;;;;5065919;28;20535;-75
2023/08/19 07:03:45;;;;;;;20.23;18.53;;;32.80;95.60;;;;;;5066030;28;20491;-74
2023/08/19 07:06:16;;;;;;;21.07;19.03;;;33.30;94.90;;;;;;5070066;28;20444;-76
2023/08/19 07:08:46;;;;;;;19.50;17.63;;;33.30;94.20;;;;;;5070840;28;20484;-76
2023/08/19 07:11:15;;;;;;;19.43;17.43;;;33.50;94.20;;;;;;5071246;28;20454;-76
2023/08/19 07:13:45;;;;;;;20.50;18.57;;;34.00;93.80;;;;;;5074668;28;20465;-72
2023/08/19 07:16:27;;;;;;;19.17;17.57;;;33.70;93.10;;;;;;5077175;28;20442;-75
2023/08/19 07:19:03;;;;;;;19.13;17.57;;;34.50;92.30;;;;;;5059901;28;20455;-75
2023/08/19 07:21:38;;;;;;;20.40;18.47;;;34.50;91.90;;;;;;5073679;28;20508;-75
2023/08/19 07:24:15;;;;;;;20.43;18.63;;;34.50;91.60;;;;;;5080238;28;20460;-75
2023/08/19 07:26:44;;;;;;;16.60;15.20;;;34.10;91.60;;;;;;5061326;28;20898;-74
2023/08/19 07:29:12;;;;;;;20.03;18.10;;;33.90;92.30;;;;;;5076608;28;20500;-77
2023/08/19 07:31:41;;;;;;;20.93;19.13;;;33.70;92.30;;;;;;5076925;28;20444;-79
2023/08/19 07:34:13;;;;;;;19.03;17.47;;;33.70;92.50;;;;;;5069279;28;20495;-77
2023/08/19 07:36:41;;;;;;;17.40;15.93;;;33.90;92.20;;;;;;5072046;28;20445;-77
2023/08/19 07:39:12;;;;;;;18.50;16.80;;;33.80;92.30;;;;;;5060023;28;20437;-76
2023/08/19 07:41:45;;;;;;;19.05;17.35;;;34.00;92.10;;;;;;5072374;28;20928;-77
2023/08/19 07:44:13;;;;;;;18.33;16.93;;;34.10;91.80;;;;;;5076622;28;20457;-78
2023/08/19 07:46:44;;;;;;;18.67;16.73;;;33.50;92.30;;;;;;5074122;28;20437;-79
2023/08/19 07:49:21;;;;;;;18.13;16.63;;;33.10;93.10;;;;;;5072790;28;20479;-79
2023/08/19 07:51:53;;;;;;;18.40;16.60;;;33.50;93.10;;;;;;5072116;28;20544;-76
2023/08/19 07:54:22;;;;;;;20.90;18.87;;;33.80;92.10;;;;;;5072286;28;20469;-78
2023/08/19 07:56:51;;;;;;;16.57;15.10;;;33.80;92.20;;;;;;5072163;28;20437;-76
2023/08/19 07:59:22;;;;;;;18.40;16.87;;;34.00;91.90;;;;;;5076530;28;20845;-78
2023/08/19 08:01:54;;;;;;;16.80;15.40;;;34.50;91.30;;;;;;5072458;28;20841;-76
2023/08/19 08:04:24;;;;;;;17.77;16.00;;;35.00;90.60;;;;;;5069965;28;20519;-77
2023/08/19 08:06:56;;;;;;;17.77;16.37;;;35.20;90.50;;;;;;5073159;28;20433;-76
2023/08/19 08:09:28;;;;;;;17.87;16.47;;;35.40;90.10;;;;;;5071840;28;20433;-77
2023/08/19 08:11:55;;;;;;;16.67;15.17;;;35.30;90.10;;;;;;5074253;28;20441;-79
2023/08/19 08:14:25;;;;;;;16.80;15.50;;;36.00;89.40;;;;;;5071099;28;20458;-76
2023/08/19 08:16:56;;;;;;;18.03;16.53;;;36.60;87.50;;;;;;5070204;28;20521;-76
2023/08/19 08:19:26;;;;;;;17.43;15.80;;;36.80;85.70;;;;;;5071783;28;20476;-77
2023/08/19 08:21:54;;;;;;;16.57;15.17;;;36.70;86.20;;;;;;5071628;28;20457;-78
2023/08/19 08:24:24;;;;;;;18.97;17.10;;;36.70;86.50;;;;;;5070026;28;20461;-78
2023/08/19 08:26:53;;;;;;;16.67;15.33;;;36.60;86.10;;;;;;5067998;28;20460;-77
2023/08/19 08:29:20;;;;;;;14.63;13.43;;;36.90;86.10;;;;;;5064895;28;20437;-78
2023/08/19 08:31:51;;;;;;;16.97;15.67;;;37.70;84.40;;;;;;5069213;28;20444;-75
2023/08/19 08:34:20;;;;;;;15.63;14.33;;;37.80;83.10;;;;;;5071520;28;20485;-77
2023/08/19 08:36:52;;;;;;;16.17;14.80;;;37.40;82.80;;;;;;5070700;28;20453;-77
2023/08/19 08:39:23;;;;;;;14.93;13.73;;;38.00;82.50;;;;;;5072161;28;20529;-76
2023/08/19 08:42:04;;;;;;;18.03;16.53;;;38.60;81.40;;;;;;5069315;28;20437;-76
2023/08/19 08:44:34;;;;;;;15.77;14.33;;;38.70;79.60;;;;;;5072189;28;20963;-78
2023/08/19 08:47:03;;;;;;;15.10;13.80;;;38.60;79.40;;;;;;5083759;28;20528;-72
2023/08/19 08:49:37;;;;;;;14.20;13.10;;;38.20;79.60;;;;;;5081456;28;20440;-73
2023/08/19 08:52:12;;;;;;;16.30;14.63;;;38.30;79.70;;;;;;5071536;28;20555;-74
2023/08/19 08:54:51;;;;;;;15.47;14.07;;;38.50;79.70;;;;;;5070676;28;20510;-73
2023/08/19 08:57:22;;;;;;;14.93;13.63;;;38.30;78.90;;;;;;5066977;28;20467;-70
2023/08/19 08:59:53;;;;;;;14.27;12.97;;;38.20;79.00;;;;;;5070621;28;20453;-71
2023/08/19 09:02:31;;;;;;;15.43;14.20;;;38.20;80.10;;;;;;5070074;28;20471;-73
2023/08/19 09:05:04;;;;;;;15.03;13.93;;;37.90;80.00;;;;;;5073190;28;20472;-73
2023/08/19 09:07:42;;;;;;;14.53;13.40;;;37.90;79.80;;;;;;5048474;28;20445;-70
2023/08/19 09:10:13;;;;;;;15.33;14.13;;;37.30;80.60;;;;;;5068598;28;20445;-73
2023/08/19 09:12:44;;;;;;;17.53;15.87;;;37.30;81.40;;;;;;5072719;28;20500;-72
2023/08/19 09:15:15;;;;;;;18.07;16.27;;;36.40;82.40;;;;;;5077557;28;20457;-73
2023/08/19 09:17:45;;;;;;;18.20;16.60;;;35.50;85.10;;;;;;5078286;28;20433;-70
2023/08/19 09:20:19;;;;;;;16.70;15.20;;;34.90;87.10;;;;;;5068217;28;20508;-72
2023/08/19 09:22:50;;;;;;;16.80;15.23;;;34.20;89.30;;;;;;5079752;28;20481;-75
2023/08/19 09:25:21;;;;;;;17.00;15.50;;;33.50;90.70;;;;;;5072327;28;20536;-72
2023/08/19 09:27:52;;;;;;;15.77;14.50;;;33.00;91.80;;;;;;5082555;28;20450;-72
2023/08/19 09:30:31;;;;;;;17.13;15.63;;;32.90;92.10;;;;;;5065710;28;20437;-75
2023/08/19 09:32:59;;;;;;;15.43;14.20;;;32.30;92.80;;;;;;5068194;28;20480;-72
2023/08/19 09:35:41;;;;;;;17.67;15.50;;;32.00;93.50;;;;;;5076900;28;20475;-74
2023/08/19 09:38:24;;;;;;;16.37;14.87;;;31.70;94.10;;;;;;5072106;28;20453;-75
2023/08/19 09:40:59;;;;;;;17.13;15.50;;;31.60;94.60;;;;;;5082161;28;20519;-73
2023/08/19 09:43:27;;;;;;;16.50;15.00;;;31.50;94.90;;;;;;5067221;28;20489;-73
2023/08/19 09:45:57;;;;;;;16.03;14.47;;;31.70;95.10;;;;;;5079303;28;20515;-73
2023/08/19 09:48:24;;;;;;;17.00;15.30;;;31.80;95.00;;;;;;5069083;28;20537;-72
2023/08/19 09:50:51;;;;;;;16.27;14.67;;;31.80;94.80;;;;;;5081707;28;20436;-71
2023/08/19 09:53:19;;;;;;;15.67;14.00;;;31.90;94.80;;;;;;5079867;28;20463;-73
2023/08/19 09:55:47;;;;;;;16.93;15.43;;;32.10;94.30;;;;;;5065712;28;20533;-71
2023/08/19 09:58:14;;;;;;;17.13;13.60;;;32.10;94.30;;;;;;5083072;28;20539;-70
2023/08/19 10:00:42;;;;;;;13.97;12.77;;;31.90;94.10;;;;;;5078539;28;20437;-72
2023/08/19 10:03:09;;;;;;;15.83;14.47;;;32.00;94.40;;;;;;5083967;28;20491;-70
2023/08/19 10:05:39;;;;;;;15.87;14.57;;;32.10;94.10;;;;;;5073583;28;20486;-73
2023/08/19 10:08:08;;;;;;;13.00;11.80;;;32.30;94.20;;;;;;5081554;28;20449;-72
2023/08/19 10:10:39;;;;;;;12.90;11.80;;;32.30;94.10;;;;;;5079817;28;20490;-74
2023/08/19 10:13:09;;;;;;;14.57;13.20;;;32.20;93.70;;;;;;5081846;28;20438;-74
2023/08/19 10:15:38;;;;;;;15.07;13.70;;;32.30;93.60;;;;;;5083338;28;20440;-71
2023/08/19 10:18:10;;;;;;;15.20;13.70;;;32.40;93.70;;;;;;5079859;28;20495;-71
2023/08/19 10:20:39;;;;;;;14.17;12.77;;;32.80;93.60;;;;;;5075630;28;20807;-70
2023/08/19 10:23:10;;;;;;;15.50;14.10;;;33.10;92.80;;;;;;5080637;28;20823;-72
2023/08/19 10:25:41;;;;;;;15.03;13.80;;;33.40;92.60;;;;;;5081306;28;20478;-73
2023/08/19 10:28:12;;;;;;;13.23;11.70;;;33.60;92.30;;;;;;5062450;28;20521;-73
2023/08/19 10:30:39;;;;;;;13.63;12.30;;;33.40;92.10;;;;;;5084135;28;20825;-70
2023/08/19 10:33:30;;;;;;;12.93;11.93;;;33.20;91.90;;;;;;5077166;28;20860;-73
2023/08/19 10:35:58;;;;;;;12.37;11.27;;;33.00;92.20;;;;;;5079781;28;20444;-72
2023/08/19 10:38:25;;;;;;;13.20;12.10;;;33.10;92.40;;;;;;5078082;28;20532;-70
2023/08/19 10:41:03;;;;;;;19.13;11.50;;;33.20;92.50;;;;;;5072602;28;20453;-72
2023/08/19 10:43:52;;;;;;;15.17;13.60;;;33.10;92.20;;;;;;5061612;28;20958;-71
2023/08/19 10:46:19;;;;;;;13.87;12.67;;;33.10;92.30;;;;;;5082866;28;20442;-71
2023/08/19 10:48:47;;;;;;;12.97;11.90;;;33.00;92.30;;;;;;5075526;28;20433;-72
2023/08/19 10:51:14;;;;;;;14.70;13.07;;;32.80;92.70;;;;;;5079463;28;20468;-71
2023/08/19 10:53:49;;;;;;;13.70;12.40;;;32.90;93.00;;;;;;5081571;28;20452;-71
2023/08/19 10:56:20;;;;;;;12.53;11.17;;;33.00;93.00;;;;;;5084888;28;20432;-74
2023/08/19 10:58:49;;;;;;;13.37;12.07;;;32.80;92.90;;;;;;5083321;28;20520;-73
2023/08/19 11:01:16;;;;;;;12.90;11.67;;;32.80;92.70;;;;;;5085970;28;20546;-71
2023/08/19 11:03:43;;;;;;;12.90;11.80;;;32.80;92.70;;;;;;5081730;28;20583;-73
2023/08/19 11:06:10;;;;;;;14.50;13.00;;;32.80;93.00;;;;;;5088223;28;20915;-71
2023/08/19 11:08:44;;;;;;;13.80;12.00;;;32.70;93.10;;;;;;5074681;28;20441;-69
2023/08/19 11:11:17;;;;;;;13.77;12.57;;;32.80;93.20;;;;;;5070737;28;20528;-71
2023/08/19 11:13:44;;;;;;;13.30;12.03;;;32.80;93.30;;;;;;5077989;28;20456;-69
2023/08/19 11:16:11;;;;;;;12.60;11.40;;;32.60;93.50;;;;;;5083749;28;20460;-70
2023/08/19 11:18:42;;;;;;;11.93;10.73;;;32.60;93.90;;;;;;5086536;28;20524;-69
2023/08/19 11:21:09;;;;;;;13.80;11.47;;;32.60;93.50;;;;;;5086162;28;20507;-71
2023/08/19 11:23:36;;;;;;;13.47;12.03;;;32.40;93.50;;;;;;5070806;28;20668;-71
2023/08/19 11:26:03;;;;;;;11.23;10.33;;;32.20;93.50;;;;;;5081123;28;20515;-75
2023/08/19 11:28:32;;;;;;;11.77;10.63;;;32.20;93.30;;;;;;5073650;28;20532;-73
2023/08/19 11:31:00;;;;;;;11.60;10.50;;;32.10;93.50;;;;;;5067445;28;20445;-73
2023/08/19 11:33:31;;;;;;;12.20;10.60;;;31.90;93.60;;;;;;5075892;28;20536;-72
2023/08/19 11:35:58;;;;;;;12.27;11.07;;;31.60;94.00;;;;;;5081704;28;20523;-73
2023/08/19 11:38:25;;;;;;;13.10;11.87;;;31.40;94.50;;;;;;5079924;28;20440;-74
2023/08/19 11:40:52;;;;;;;12.37;11.10;;;31.40;94.60;;;;;;5085624;28;20952;-74
2023/08/19 11:43:23;;;;;;;13.13;11.10;;;31.30;94.70;;;;;;5070789;28;20484;-75
2023/08/19 11:45:53;;;;;;;14.30;10.70;;;31.10;94.90;;;;;;5070590;28;20528;-71
2023/08/19 11:48:20;;;;;;;13.17;10.40;;;31.00;95.20;;;;;;5067742;28;20451;-73
2023/08/19 11:50:51;;;;;;;13.47;12.03;;;30.90;95.50;;;;;;5074701;28;20989;-73
2023/08/19 11:53:23;;;;;;;11.20;10.10;;;30.80;95.60;;;;;;5089236;28;20567;-73
2023/08/19 11:55:52;;;;;;;11.47;10.47;;;30.90;96.00;;;;;;5079568;28;20437;-72
2023/08/19 11:58:20;;;;;;;13.77;12.37;;;30.80;96.30;;;;;;5076991;28;20448;-74
2023/08/19 12:00:47;;;;;;;14.30;12.10;;;30.70;96.70;;;;;;5086751;28;20448;-73
2023/08/19 12:03:17;;;;;;;13.60;12.20;;;30.70;97.10;;;;;;5084901;28;20602;-74
2023/08/19 12:05:45;;;;;;;13.70;12.40;;;30.70;97.30;;;;;;5086245;28;20783;-73
2023/08/19 12:08:27;;;;;;;16.43;12.40;;;30.70;97.50;;;;;;5085981;28;20456;-76
2023/08/19 12:10:54;;;;;;;16.20;12.87;;;30.70;97.50;;;;;;5070949;28;21593;-74
2023/08/19 12:13:21;;;;;;;14.03;12.53;;;30.50;97.60;;;;;;5072533;28;21037;-74
2023/08/19 12:15:48;;;;;;;15.50;13.53;;;30.60;98.00;;;;;;5074109;28;20529;-73
2023/08/19 12:18:17;;;;;;;11.93;10.93;;;30.60;97.90;;;;;;5074664;28;20448;-77
2023/08/19 12:20:44;;;;;;;11.73;10.73;;;30.60;97.90;;;;;;5070202;28;20834;-75
2023/08/19 12:23:11;;;;;;;12.53;11.33;;;30.50;98.20;;;;;;5081096;28;21023;-73
2023/08/19 12:25:49;;;;;;;14.33;12.30;;;30.50;98.40;;;;;;5087363;28;20452;-75
2023/08/19 12:28:18;;;;;;;15.33;13.43;;;30.60;98.40;;;;;;5063035;28;20443;-73
2023/08/19 12:30:44;;;;;;;13.63;12.23;;;30.60;98.50;;;;;;5084791;28;20432;-72
2023/08/19 12:33:13;;;;;;;13.57;12.37;;;30.60;98.70;;;;;;5080878;28;20544;-73
2023/08/19 12:35:44;;;;;;;13.00;11.50;;;30.60;99.00;;;;;;5070741;28;20934;-74
2023/08/19 12:38:14;;;;;;;14.57;13.07;;;30.70;98.80;;;;;;5083859;28;20445;-74
2023/08/19 12:40:41;;;;;;;15.30;13.83;;;30.80;98.80;;;;;;5085290;28;20455;-75
2023/08/19 12:43:08;;;;;;;14.43;13.13;;;30.90;98.90;;;;;;5080452;28;20556;-75
2023/08/19 12:45:35;;;;;;;13.97;12.53;;;30.90;98.70;;;;;;5084618;28;20864;-76